sensor_id;sensor_type;location;lat;lon;timestamp;P1;durP1;ratioP1;P2;durP2;ratioP2
22660;SDS011;11497;52.222;21.246;2023-03-13T00:01:24;33.75;;;15.18;;
22660;SDS011;11497;52.222;21.246;2023-03-13T00:03:54;33.63;;;14.68;;
22660;SDS011;11497;52.222;21.246;2023-03-13T00:06:23;32.05;;;14.93;;
22660;SDS011;11497;52.222;21.246;2023-03-13T00:08:53;36.08;;;14.68;;
22660;SDS011;11497;52.222;21.246;2023-03-13T00:11:21;31.30;;;14.38;;
22660;SDS011;11497;52.222;21.246;2023-03-13T00:13:52;39.65;;;15.32;;
22660;SDS011;11497;52.222;21.246;2023-03-13T00:16:21;33.03;;;15.48;;
22660;SDS011;11497;52.222;21.246;2023-03-13T00:18:51;29.02;;;14.30;;
22660;SDS011;11497;52.222;21.246;2023-03-13T00:21:21;32.85;;;13.95;;
22660;SDS011;11497;52.222;21.246;2023-03-13T00:23:50;32.72;;;15.32;;
22660;SDS011;11497;52.222;21.246;2023-03-13T00:26:20;30.20;;;14.20;;
22660;SDS011;11497;52.222;21.246;2023-03-13T00:28:51;31.75;;;15.18;;
22660;SDS011;11497;52.222;21.246;2023-03-13T00:31:20;34.03;;;14.85;;
22660;SDS011;11497;52.222;21.246;2023-03-13T00:33:52;29.52;;;15.15;;
22660;SDS011;11497;52.222;21.246;2023-03-13T00:36:25;33.88;;;15.00;;
22660;SDS011;11497;52.222;21.246;2023-03-13T00:38:55;36.55;;;15.52;;
22660;SDS011;11497;52.222;21.246;2023-03-13T00:41:27;37.67;;;15.75;;
22660;SDS011;11497;52.222;21.246;2023-03-13T00:43:57;32.70;;;15.02;;
22660;SDS011;11497;52.222;21.246;2023-03-13T00:46:26;31.70;;;15.18;;
22660;SDS011;11497;52.222;21.246;2023-03-13T00:48:55;32.80;;;15.38;;
22660;SDS011;11497;52.222;21.246;2023-03-13T00:51:23;33.88;;;15.90;;
22660;SDS011;11497;52.222;21.246;2023-03-13T00:53:54;30.63;;;15.32;;
22660;SDS011;11497;52.222;21.246;2023-03-13T00:56:25;30.88;;;14.45;;
22660;SDS011;11497;52.222;21.246;2023-03-13T00:58:54;31.30;;;15.38;;
22660;SDS011;11497;52.222;21.246;2023-03-13T01:03:55;33.42;;;15.85;;
22660;SDS011;11497;52.222;21.246;2023-03-13T01:06:32;34.92;;;15.23;;
22660;SDS011;11497;52.222;21.246;2023-03-13T01:09:03;35.65;;;15.63;;
22660;SDS011;11497;52.222;21.246;2023-03-13T01:11:36;37.42;;;15.50;;
22660;SDS011;11497;52.222;21.246;2023-03-13T01:14:11;35.70;;;15.57;;
22660;SDS011;11497;52.222;21.246;2023-03-13T01:16:41;34.67;;;15.43;;
22660;SDS011;11497;52.222;21.246;2023-03-13T01:19:12;30.15;;;14.57;;
22660;SDS011;11497;52.222;21.246;2023-03-13T01:21:42;31.05;;;14.75;;
22660;SDS011;11497;52.222;21.246;2023-03-13T01:24:11;33.40;;;14.75;;
22660;SDS011;11497;52.222;21.246;2023-03-13T01:26:39;36.65;;;16.10;;
22660;SDS011;11497;52.222;21.246;2023-03-13T01:29:07;30.85;;;15.38;;
22660;SDS011;11497;52.222;21.246;2023-03-13T01:31:35;36.28;;;16.60;;
22660;SDS011;11497;52.222;21.246;2023-03-13T01:34:06;35.88;;;18.98;;
22660;SDS011;11497;52.222;21.246;2023-03-13T01:36:35;32.88;;;16.40;;
22660;SDS011;11497;52.222;21.246;2023-03-13T01:39:04;32.38;;;16.15;;
22660;SDS011;11497;52.222;21.246;2023-03-13T01:41:32;28.73;;;14.95;;
22660;SDS011;11497;52.222;21.246;2023-03-13T01:44:00;60.85;;;28.33;;
22660;SDS011;11497;52.222;21.246;2023-03-13T01:46:32;56.95;;;28.67;;
22660;SDS011;11497;52.222;21.246;2023-03-13T01:49:20;47.40;;;24.10;;
22660;SDS011;11497;52.222;21.246;2023-03-13T01:52:00;35.40;;;18.50;;
22660;SDS011;11497;52.222;21.246;2023-03-13T01:59:48;29.90;;;13.60;;
22660;SDS011;11497;52.222;21.246;2023-03-13T02:02:39;27.20;;;13.20;;
22660;SDS011;11497;52.222;21.246;2023-03-13T02:05:13;29.67;;;14.15;;
22660;SDS011;11497;52.222;21.246;2023-03-13T02:07:49;27.65;;;12.57;;
22660;SDS011;11497;52.222;21.246;2023-03-13T02:10:27;26.67;;;12.02;;
22660;SDS011;11497;52.222;21.246;2023-03-13T02:12:57;24.73;;;12.45;;
22660;SDS011;11497;52.222;21.246;2023-03-13T02:15:28;25.58;;;12.68;;
22660;SDS011;11497;52.222;21.246;2023-03-13T02:17:57;28.35;;;12.45;;
22660;SDS011;11497;52.222;21.246;2023-03-13T02:20:26;23.13;;;12.10;;
22660;SDS011;11497;52.222;21.246;2023-03-13T02:23:08;27.33;;;11.85;;
22660;SDS011;11497;52.222;21.246;2023-03-13T02:25:52;27.27;;;11.80;;
22660;SDS011;11497;52.222;21.246;2023-03-13T02:28:35;22.40;;;11.50;;
22660;SDS011;11497;52.222;21.246;2023-03-13T02:31:09;26.73;;;11.50;;
22660;SDS011;11497;52.222;21.246;2023-03-13T02:33:39;23.30;;;11.50;;
22660;SDS011;11497;52.222;21.246;2023-03-13T02:36:11;23.90;;;11.40;;
22660;SDS011;11497;52.222;21.246;2023-03-13T02:38:47;28.15;;;12.48;;
22660;SDS011;11497;52.222;21.246;2023-03-13T02:41:21;22.55;;;12.05;;
22660;SDS011;11497;52.222;21.246;2023-03-13T02:43:50;22.02;;;11.68;;
22660;SDS011;11497;52.222;21.246;2023-03-13T02:46:19;24.63;;;11.68;;
22660;SDS011;11497;52.222;21.246;2023-03-13T02:48:52;21.52;;;11.57;;
22660;SDS011;11497;52.222;21.246;2023-03-13T02:54:14;29.05;;;11.55;;
22660;SDS011;11497;52.222;21.246;2023-03-13T02:56:46;25.48;;;11.70;;
22660;SDS011;11497;52.222;21.246;2023-03-13T02:59:16;23.50;;;12.05;;
22660;SDS011;11497;52.222;21.246;2023-03-13T03:01:45;26.25;;;11.98;;
22660;SDS011;11497;52.222;21.246;2023-03-13T03:04:13;23.20;;;13.00;;
22660;SDS011;11497;52.222;21.246;2023-03-13T03:06:41;24.20;;;11.73;;
22660;SDS011;11497;52.222;21.246;2023-03-13T03:09:09;22.13;;;11.95;;
22660;SDS011;11497;52.222;21.246;2023-03-13T03:11:37;24.20;;;11.90;;
22660;SDS011;11497;52.222;21.246;2023-03-13T03:14:10;23.08;;;11.30;;
22660;SDS011;11497;52.222;21.246;2023-03-13T03:16:42;20.63;;;10.90;;
22660;SDS011;11497;52.222;21.246;2023-03-13T03:19:10;24.90;;;12.82;;
22660;SDS011;11497;52.222;21.246;2023-03-13T03:21:38;26.75;;;12.00;;
22660;SDS011;11497;52.222;21.246;2023-03-13T03:24:06;27.25;;;12.55;;
22660;SDS011;11497;52.222;21.246;2023-03-13T03:26:35;23.33;;;12.20;;
22660;SDS011;11497;52.222;21.246;2023-03-13T03:29:10;26.52;;;12.02;;
22660;SDS011;11497;52.222;21.246;2023-03-13T03:31:39;23.20;;;12.07;;
22660;SDS011;11497;52.222;21.246;2023-03-13T03:34:08;22.52;;;11.55;;
22660;SDS011;11497;52.222;21.246;2023-03-13T03:36:36;21.52;;;12.48;;
22660;SDS011;11497;52.222;21.246;2023-03-13T03:39:04;24.55;;;11.65;;
22660;SDS011;11497;52.222;21.246;2023-03-13T03:41:33;22.92;;;11.65;;
22660;SDS011;11497;52.222;21.246;2023-03-13T03:44:04;23.13;;;11.70;;
22660;SDS011;11497;52.222;21.246;2023-03-13T03:46:48;21.90;;;11.52;;
22660;SDS011;11497;52.222;21.246;2023-03-13T03:49:16;20.77;;;12.02;;
22660;SDS011;11497;52.222;21.246;2023-03-13T03:51:44;23.13;;;12.38;;
22660;SDS011;11497;52.222;21.246;2023-03-13T03:54:12;24.00;;;12.15;;
22660;SDS011;11497;52.222;21.246;2023-03-13T03:56:41;23.27;;;12.10;;
22660;SDS011;11497;52.222;21.246;2023-03-13T03:59:09;24.75;;;11.98;;
22660;SDS011;11497;52.222;21.246;2023-03-13T04:01:43;23.95;;;12.32;;
22660;SDS011;11497;52.222;21.246;2023-03-13T04:04:14;18.98;;;11.55;;
22660;SDS011;11497;52.222;21.246;2023-03-13T04:06:46;23.55;;;11.35;;
22660;SDS011;11497;52.222;21.246;2023-03-13T04:09:14;24.85;;;11.18;;
22660;SDS011;11497;52.222;21.246;2023-03-13T04:11:42;20.88;;;11.07;;
22660;SDS011;11497;52.222;21.246;2023-03-13T04:14:10;26.67;;;11.48;;
22660;SDS011;11497;52.222;21.246;2023-03-13T04:16:38;22.42;;;11.02;;
22660;SDS011;11497;52.222;21.246;2023-03-13T04:19:06;20.73;;;10.68;;
22660;SDS011;11497;52.222;21.246;2023-03-13T04:21:34;20.75;;;11.57;;
22660;SDS011;11497;52.222;21.246;2023-03-13T04:24:07;25.07;;;11.00;;
22660;SDS011;11497;52.222;21.246;2023-03-13T04:26:38;21.58;;;10.77;;
22660;SDS011;11497;52.222;21.246;2023-03-13T04:29:06;17.42;;;10.15;;
22660;SDS011;11497;52.222;21.246;2023-03-13T04:31:56;19.15;;;9.25;;
22660;SDS011;11497;52.222;21.246;2023-03-13T04:34:41;21.10;;;11.10;;
22660;SDS011;11497;52.222;21.246;2023-03-13T04:37:35;19.90;;;10.57;;
22660;SDS011;11497;52.222;21.246;2023-03-13T04:40:21;23.60;;;11.05;;
22660;SDS011;11497;52.222;21.246;2023-03-13T04:43:05;18.20;;;10.32;;
22660;SDS011;11497;52.222;21.246;2023-03-13T04:45:35;22.55;;;10.85;;
22660;SDS011;11497;52.222;21.246;2023-03-13T04:48:30;19.10;;;11.40;;
22660;SDS011;11497;52.222;21.246;2023-03-13T04:51:11;22.63;;;10.98;;
22660;SDS011;11497;52.222;21.246;2023-03-13T04:53:58;17.90;;;9.95;;
22660;SDS011;11497;52.222;21.246;2023-03-13T04:56:42;23.40;;;10.65;;
22660;SDS011;11497;52.222;21.246;2023-03-13T04:59:22;20.17;;;10.65;;
22660;SDS011;11497;52.222;21.246;2023-03-13T05:01:59;21.42;;;11.15;;
22660;SDS011;11497;52.222;21.246;2023-03-13T05:04:50;23.10;;;10.85;;
22660;SDS011;11497;52.222;21.246;2023-03-13T05:07:36;21.67;;;11.07;;
22660;SDS011;11497;52.222;21.246;2023-03-13T05:10:26;19.27;;;11.15;;
22660;SDS011;11497;52.222;21.246;2023-03-13T05:13:12;20.98;;;10.90;;
22660;SDS011;11497;52.222;21.246;2023-03-13T05:15:55;18.90;;;11.17;;
22660;SDS011;11497;52.222;21.246;2023-03-13T05:18:46;21.50;;;11.23;;
22660;SDS011;11497;52.222;21.246;2023-03-13T05:21:23;19.80;;;10.88;;
22660;SDS011;11497;52.222;21.246;2023-03-13T05:24:10;25.05;;;11.98;;
22660;SDS011;11497;52.222;21.246;2023-03-13T05:26:58;26.65;;;12.32;;
22660;SDS011;11497;52.222;21.246;2023-03-13T05:29:55;21.02;;;11.23;;
22660;SDS011;11497;52.222;21.246;2023-03-13T05:32:44;20.30;;;11.85;;
22660;SDS011;11497;52.222;21.246;2023-03-13T05:35:19;22.27;;;12.05;;
22660;SDS011;11497;52.222;21.246;2023-03-13T05:37:59;19.45;;;11.60;;
22660;SDS011;11497;52.222;21.246;2023-03-13T05:41:01;22.55;;;12.02;;
22660;SDS011;11497;52.222;21.246;2023-03-13T05:43:56;20.30;;;11.52;;
22660;SDS011;11497;52.222;21.246;2023-03-13T05:46:56;22.85;;;11.48;;
22660;SDS011;11497;52.222;21.246;2023-03-13T05:49:27;21.05;;;12.32;;
22660;SDS011;11497;52.222;21.246;2023-03-13T05:52:28;21.63;;;12.23;;
22660;SDS011;11497;52.222;21.246;2023-03-13T05:55:14;20.02;;;11.57;;
22660;SDS011;11497;52.222;21.246;2023-03-13T05:58:12;24.27;;;12.15;;
22660;SDS011;11497;52.222;21.246;2023-03-13T06:00:42;27.33;;;12.55;;
22660;SDS011;11497;52.222;21.246;2023-03-13T06:03:33;22.85;;;12.85;;
22660;SDS011;11497;52.222;21.246;2023-03-13T06:06:02;21.92;;;12.95;;
22660;SDS011;11497;52.222;21.246;2023-03-13T06:08:42;25.33;;;12.35;;
22660;SDS011;11497;52.222;21.246;2023-03-13T06:11:11;24.85;;;13.20;;
22660;SDS011;11497;52.222;21.246;2023-03-13T06:13:39;22.83;;;12.25;;
22660;SDS011;11497;52.222;21.246;2023-03-13T06:16:20;23.63;;;12.60;;
22660;SDS011;11497;52.222;21.246;2023-03-13T06:18:48;24.30;;;13.70;;
22660;SDS011;11497;52.222;21.246;2023-03-13T06:21:16;26.08;;;14.55;;
22660;SDS011;11497;52.222;21.246;2023-03-13T06:23:44;26.73;;;14.23;;
22660;SDS011;11497;52.222;21.246;2023-03-13T06:26:12;24.95;;;14.05;;
22660;SDS011;11497;52.222;21.246;2023-03-13T06:28:40;23.17;;;13.85;;
22660;SDS011;11497;52.222;21.246;2023-03-13T06:31:09;24.27;;;14.13;;
22660;SDS011;11497;52.222;21.246;2023-03-13T06:33:36;24.85;;;14.40;;
22660;SDS011;11497;52.222;21.246;2023-03-13T06:36:05;25.38;;;14.88;;
22660;SDS011;11497;52.222;21.246;2023-03-13T06:38:33;27.50;;;13.90;;
22660;SDS011;11497;52.222;21.246;2023-03-13T06:41:01;26.30;;;14.68;;
22660;SDS011;11497;52.222;21.246;2023-03-13T06:43:29;25.95;;;15.00;;
22660;SDS011;11497;52.222;21.246;2023-03-13T06:46:01;29.23;;;13.98;;
22660;SDS011;11497;52.222;21.246;2023-03-13T06:48:30;24.52;;;14.95;;
22660;SDS011;11497;52.222;21.246;2023-03-13T06:50:58;28.08;;;14.75;;
22660;SDS011;11497;52.222;21.246;2023-03-13T06:53:26;28.80;;;15.40;;
22660;SDS011;11497;52.222;21.246;2023-03-13T06:55:55;32.95;;;16.23;;
22660;SDS011;11497;52.222;21.246;2023-03-13T06:58:25;26.52;;;15.07;;
22660;SDS011;11497;52.222;21.246;2023-03-13T07:01:08;29.85;;;15.38;;
22660;SDS011;11497;52.222;21.246;2023-03-13T07:03:37;25.23;;;14.80;;
22660;SDS011;11497;52.222;21.246;2023-03-13T07:06:07;26.33;;;15.60;;
22660;SDS011;11497;52.222;21.246;2023-03-13T07:08:36;29.30;;;15.23;;
22660;SDS011;11497;52.222;21.246;2023-03-13T07:11:05;27.25;;;15.23;;
22660;SDS011;11497;52.222;21.246;2023-03-13T07:13:35;27.98;;;15.82;;
22660;SDS011;11497;52.222;21.246;2023-03-13T07:16:07;26.92;;;15.25;;
22660;SDS011;11497;52.222;21.246;2023-03-13T07:18:36;19.42;;;10.88;;
22660;SDS011;11497;52.222;21.246;2023-03-13T07:21:08;25.33;;;14.68;;
22660;SDS011;11497;52.222;21.246;2023-03-13T07:23:36;27.65;;;15.15;;
22660;SDS011;11497;52.222;21.246;2023-03-13T07:26:05;24.67;;;13.88;;
22660;SDS011;11497;52.222;21.246;2023-03-13T07:28:37;27.63;;;15.68;;
22660;SDS011;11497;52.222;21.246;2023-03-13T07:31:06;29.00;;;14.85;;
22660;SDS011;11497;52.222;21.246;2023-03-13T07:33:37;26.88;;;15.15;;
22660;SDS011;11497;52.222;21.246;2023-03-13T07:36:06;25.92;;;14.55;;
22660;SDS011;11497;52.222;21.246;2023-03-13T07:38:34;26.27;;;14.82;;
22660;SDS011;11497;52.222;21.246;2023-03-13T07:41:02;25.00;;;14.52;;
22660;SDS011;11497;52.222;21.246;2023-03-13T07:43:31;24.35;;;14.00;;
22660;SDS011;11497;52.222;21.246;2023-03-13T07:46:00;26.25;;;14.40;;
22660;SDS011;11497;52.222;21.246;2023-03-13T07:48:36;24.35;;;13.43;;
22660;SDS011;11497;52.222;21.246;2023-03-13T07:51:07;25.63;;;13.48;;
22660;SDS011;11497;52.222;21.246;2023-03-13T07:53:38;22.98;;;13.77;;
22660;SDS011;11497;52.222;21.246;2023-03-13T07:56:08;27.83;;;14.70;;
22660;SDS011;11497;52.222;21.246;2023-03-13T07:58:38;24.85;;;13.20;;
22660;SDS011;11497;52.222;21.246;2023-03-13T08:01:08;25.98;;;13.63;;
22660;SDS011;11497;52.222;21.246;2023-03-13T08:03:43;22.48;;;13.63;;
22660;SDS011;11497;52.222;21.246;2023-03-13T08:06:13;23.13;;;12.70;;
22660;SDS011;11497;52.222;21.246;2023-03-13T08:08:42;19.48;;;12.48;;
22660;SDS011;11497;52.222;21.246;2023-03-13T08:11:11;21.52;;;13.05;;
22660;SDS011;11497;52.222;21.246;2023-03-13T08:13:41;23.98;;;13.30;;
22660;SDS011;11497;52.222;21.246;2023-03-13T08:16:10;25.45;;;14.13;;
22660;SDS011;11497;52.222;21.246;2023-03-13T08:18:44;24.17;;;13.30;;
22660;SDS011;11497;52.222;21.246;2023-03-13T08:21:18;22.13;;;12.70;;
22660;SDS011;11497;52.222;21.246;2023-03-13T08:23:47;20.50;;;12.77;;
22660;SDS011;11497;52.222;21.246;2023-03-13T08:26:19;21.45;;;13.05;;
22660;SDS011;11497;52.222;21.246;2023-03-13T08:28:51;21.17;;;12.95;;
22660;SDS011;11497;52.222;21.246;2023-03-13T08:31:21;20.88;;;12.70;;
22660;SDS011;11497;52.222;21.246;2023-03-13T08:33:51;23.38;;;13.77;;
22660;SDS011;11497;52.222;21.246;2023-03-13T08:36:21;26.00;;;13.50;;
22660;SDS011;11497;52.222;21.246;2023-03-13T08:38:51;20.30;;;12.65;;
22660;SDS011;11497;52.222;21.246;2023-03-13T08:41:22;21.77;;;13.88;;
22660;SDS011;11497;52.222;21.246;2023-03-13T08:43:52;23.50;;;12.82;;
22660;SDS011;11497;52.222;21.246;2023-03-13T08:46:20;25.60;;;13.75;;
22660;SDS011;11497;52.222;21.246;2023-03-13T08:48:49;25.80;;;14.20;;
22660;SDS011;11497;52.222;21.246;2023-03-13T08:51:18;27.40;;;14.13;;
22660;SDS011;11497;52.222;21.246;2023-03-13T08:53:49;24.70;;;13.90;;
22660;SDS011;11497;52.222;21.246;2023-03-13T08:56:18;25.60;;;14.15;;
22660;SDS011;11497;52.222;21.246;2023-03-13T08:58:50;21.00;;;13.35;;
22660;SDS011;11497;52.222;21.246;2023-03-13T09:01:21;22.90;;;13.97;;
22660;SDS011;11497;52.222;21.246;2023-03-13T09:03:50;23.42;;;14.13;;
22660;SDS011;11497;52.222;21.246;2023-03-13T09:06:19;22.10;;;14.23;;
22660;SDS011;11497;52.222;21.246;2023-03-13T09:08:46;22.73;;;13.32;;
22660;SDS011;11497;52.222;21.246;2023-03-13T09:11:19;20.27;;;12.93;;
22660;SDS011;11497;52.222;21.246;2023-03-13T09:13:49;22.60;;;13.70;;
22660;SDS011;11497;52.222;21.246;2023-03-13T09:16:21;20.73;;;12.45;;
22660;SDS011;11497;52.222;21.246;2023-03-13T09:18:51;24.92;;;12.82;;
22660;SDS011;11497;52.222;21.246;2023-03-13T09:21:21;22.10;;;13.25;;
22660;SDS011;11497;52.222;21.246;2023-03-13T09:23:52;21.33;;;12.40;;
22660;SDS011;11497;52.222;21.246;2023-03-13T09:26:20;22.65;;;13.30;;
22660;SDS011;11497;52.222;21.246;2023-03-13T09:28:49;21.95;;;12.15;;
22660;SDS011;11497;52.222;21.246;2023-03-13T09:31:19;19.50;;;11.45;;
22660;SDS011;11497;52.222;21.246;2023-03-13T09:33:49;19.48;;;11.90;;
22660;SDS011;11497;52.222;21.246;2023-03-13T09:36:17;21.52;;;11.98;;
22660;SDS011;11497;52.222;21.246;2023-03-13T09:38:51;23.08;;;12.20;;
22660;SDS011;11497;52.222;21.246;2023-03-13T09:41:42;19.60;;;11.65;;
22660;SDS011;11497;52.222;21.246;2023-03-13T09:47:24;21.65;;;11.70;;
22660;SDS011;11497;52.222;21.246;2023-03-13T09:49:39;18.38;;;9.82;;
22660;SDS011;11497;52.222;21.246;2023-03-13T09:52:27;15.57;;;8.60;;
22660;SDS011;11497;52.222;21.246;2023-03-13T09:55:01;14.05;;;8.45;;
22660;SDS011;11497;52.222;21.246;2023-03-13T09:57:54;16.98;;;8.27;;
22660;SDS011;11497;52.222;21.246;2023-03-13T10:00:29;13.40;;;7.65;;
22660;SDS011;11497;52.222;21.246;2023-03-13T10:05:51;11.68;;;7.15;;
22660;SDS011;11497;52.222;21.246;2023-03-13T10:08:24;13.45;;;7.45;;
22660;SDS011;11497;52.222;21.246;2023-03-13T10:13:41;11.35;;;6.63;;
22660;SDS011;11497;52.222;21.246;2023-03-13T10:16:23;13.43;;;6.93;;
22660;SDS011;11497;52.222;21.246;2023-03-13T10:19:06;12.00;;;6.38;;
22660;SDS011;11497;52.222;21.246;2023-03-13T10:21:44;10.50;;;6.13;;
22660;SDS011;11497;52.222;21.246;2023-03-13T10:26:46;9.98;;;6.32;;
22660;SDS011;11497;52.222;21.246;2023-03-13T10:31:49;16.15;;;6.55;;
22660;SDS011;11497;52.222;21.246;2023-03-13T10:34:22;9.48;;;5.65;;
22660;SDS011;11497;52.222;21.246;2023-03-13T10:36:59;11.05;;;5.47;;
22660;SDS011;11497;52.222;21.246;2023-03-13T10:39:28;12.02;;;5.88;;
22660;SDS011;11497;52.222;21.246;2023-03-13T10:41:57;11.90;;;6.00;;
22660;SDS011;11497;52.222;21.246;2023-03-13T10:44:37;12.48;;;5.22;;
22660;SDS011;11497;52.222;21.246;2023-03-13T10:47:04;9.30;;;5.40;;
22660;SDS011;11497;52.222;21.246;2023-03-13T10:49:45;11.20;;;5.57;;
22660;SDS011;11497;52.222;21.246;2023-03-13T10:55:10;11.85;;;5.32;;
22660;SDS011;11497;52.222;21.246;2023-03-13T10:57:42;13.05;;;5.10;;
22660;SDS011;11497;52.222;21.246;2023-03-13T11:02:58;15.43;;;5.40;;
22660;SDS011;11497;52.222;21.246;2023-03-13T11:05:29;13.40;;;5.63;;
22660;SDS011;11497;52.222;21.246;2023-03-13T11:08:06;12.35;;;5.30;;
22660;SDS011;11497;52.222;21.246;2023-03-13T11:10:52;16.15;;;6.10;;
22660;SDS011;11497;52.222;21.246;2023-03-13T11:16:25;16.55;;;5.75;;
22660;SDS011;11497;52.222;21.246;2023-03-13T11:21:56;15.23;;;5.22;;
22660;SDS011;11497;52.222;21.246;2023-03-13T11:27:30;12.95;;;5.38;;
22660;SDS011;11497;52.222;21.246;2023-03-13T11:30:16;9.10;;;4.70;;
22660;SDS011;11497;52.222;21.246;2023-03-13T11:32:50;10.00;;;5.22;;
22660;SDS011;11497;52.222;21.246;2023-03-13T11:35:35;11.48;;;5.20;;
22660;SDS011;11497;52.222;21.246;2023-03-13T11:38:20;13.27;;;5.60;;
22660;SDS011;11497;52.222;21.246;2023-03-13T11:49:07;13.13;;;6.28;;
22660;SDS011;11497;52.222;21.246;2023-03-13T11:57:04;11.07;;;5.07;;
22660;SDS011;11497;52.222;21.246;2023-03-13T11:59:52;12.90;;;5.97;;
22660;SDS011;11497;52.222;21.246;2023-03-13T12:02:38;13.23;;;5.85;;
22660;SDS011;11497;52.222;21.246;2023-03-13T12:05:18;10.75;;;5.70;;
22660;SDS011;11497;52.222;21.246;2023-03-13T12:10:24;11.85;;;6.45;;
22660;SDS011;11497;52.222;21.246;2023-03-13T12:15:42;15.27;;;5.65;;
22660;SDS011;11497;52.222;21.246;2023-03-13T12:18:22;15.05;;;5.72;;
22660;SDS011;11497;52.222;21.246;2023-03-13T12:20:57;18.00;;;5.78;;
22660;SDS011;11497;52.222;21.246;2023-03-13T12:26:20;11.90;;;5.57;;
22660;SDS011;11497;52.222;21.246;2023-03-13T12:31:28;12.98;;;5.53;;
22660;SDS011;11497;52.222;21.246;2023-03-13T12:34:35;12.68;;;6.65;;
22660;SDS011;11497;52.222;21.246;2023-03-13T12:37:33;14.75;;;6.07;;
22660;SDS011;11497;52.222;21.246;2023-03-13T12:40:25;16.52;;;5.85;;
22660;SDS011;11497;52.222;21.246;2023-03-13T12:42:58;15.65;;;5.95;;
22660;SDS011;11497;52.222;21.246;2023-03-13T12:45:37;18.08;;;5.10;;
22660;SDS011;11497;52.222;21.246;2023-03-13T12:54:30;12.82;;;5.25;;
22660;SDS011;11497;52.222;21.246;2023-03-13T12:57:02;12.80;;;5.38;;
22660;SDS011;11497;52.222;21.246;2023-03-13T12:59:55;15.15;;;5.32;;
22660;SDS011;11497;52.222;21.246;2023-03-13T13:02:31;13.87;;;5.70;;
22660;SDS011;11497;52.222;21.246;2023-03-13T13:05:00;15.60;;;5.18;;
22660;SDS011;11497;52.222;21.246;2023-03-13T13:07:32;13.32;;;5.65;;
22660;SDS011;11497;52.222;21.246;2023-03-13T13:12:37;13.50;;;4.80;;
22660;SDS011;11497;52.222;21.246;2023-03-13T13:15:25;14.77;;;5.30;;
22660;SDS011;11497;52.222;21.246;2023-03-13T13:28:56;10.38;;;5.80;;
22660;SDS011;11497;52.222;21.246;2023-03-13T13:39:39;12.50;;;4.97;;
22660;SDS011;11497;52.222;21.246;2023-03-13T13:47:41;15.30;;;5.88;;
22660;SDS011;11497;52.222;21.246;2023-03-13T13:52:47;17.88;;;5.80;;
22660;SDS011;11497;52.222;21.246;2023-03-13T13:58:00;16.17;;;6.05;;
22660;SDS011;11497;52.222;21.246;2023-03-13T14:00:35;16.30;;;5.82;;
22660;SDS011;11497;52.222;21.246;2023-03-13T14:03:36;14.77;;;5.45;;
22660;SDS011;11497;52.222;21.246;2023-03-13T14:06:27;15.43;;;5.72;;
22660;SDS011;11497;52.222;21.246;2023-03-13T14:09:13;17.00;;;6.55;;
22660;SDS011;11497;52.222;21.246;2023-03-13T14:12:23;21.55;;;6.78;;
22660;SDS011;11497;52.222;21.246;2023-03-13T14:17:41;18.13;;;6.57;;
22660;SDS011;11497;52.222;21.246;2023-03-13T14:22:53;18.58;;;6.93;;
22660;SDS011;11497;52.222;21.246;2023-03-13T14:25:28;13.95;;;6.82;;
22660;SDS011;11497;52.222;21.246;2023-03-13T14:28:15;20.00;;;7.18;;
22660;SDS011;11497;52.222;21.246;2023-03-13T14:30:55;20.33;;;7.30;;
22660;SDS011;11497;52.222;21.246;2023-03-13T14:33:24;18.27;;;7.57;;
22660;SDS011;11497;52.222;21.246;2023-03-13T14:35:53;16.35;;;6.90;;
22660;SDS011;11497;52.222;21.246;2023-03-13T14:38:27;18.02;;;6.75;;
22660;SDS011;11497;52.222;21.246;2023-03-13T14:40:55;17.45;;;6.75;;
22660;SDS011;11497;52.222;21.246;2023-03-13T14:45:52;17.52;;;6.80;;
22660;SDS011;11497;52.222;21.246;2023-03-13T14:48:21;19.10;;;6.80;;
22660;SDS011;11497;52.222;21.246;2023-03-13T14:51:00;19.40;;;6.80;;
22660;SDS011;11497;52.222;21.246;2023-03-13T14:53:52;22.50;;;7.25;;
22660;SDS011;11497;52.222;21.246;2023-03-13T14:56:29;18.17;;;6.68;;
22660;SDS011;11497;52.222;21.246;2023-03-13T14:59:06;19.85;;;6.28;;
22660;SDS011;11497;52.222;21.246;2023-03-13T15:01:34;18.42;;;5.45;;
22660;SDS011;11497;52.222;21.246;2023-03-13T15:04:02;18.73;;;6.57;;
22660;SDS011;11497;52.222;21.246;2023-03-13T15:06:30;21.42;;;5.93;;
22660;SDS011;11497;52.222;21.246;2023-03-13T15:09:18;13.98;;;5.47;;
22660;SDS011;11497;52.222;21.246;2023-03-13T15:11:57;19.35;;;5.82;;
22660;SDS011;11497;52.222;21.246;2023-03-13T15:14:31;14.15;;;5.85;;
22660;SDS011;11497;52.222;21.246;2023-03-13T15:17:17;15.68;;;6.22;;
22660;SDS011;11497;52.222;21.246;2023-03-13T15:19:53;17.42;;;6.15;;
22660;SDS011;11497;52.222;21.246;2023-03-13T15:22:33;13.80;;;5.55;;
22660;SDS011;11497;52.222;21.246;2023-03-13T15:25:14;17.67;;;6.32;;
22660;SDS011;11497;52.222;21.246;2023-03-13T15:27:45;13.40;;;6.43;;
22660;SDS011;11497;52.222;21.246;2023-03-13T15:30:15;18.05;;;6.78;;
22660;SDS011;11497;52.222;21.246;2023-03-13T15:32:45;23.33;;;6.93;;
22660;SDS011;11497;52.222;21.246;2023-03-13T15:35:21;14.57;;;5.75;;
22660;SDS011;11497;52.222;21.246;2023-03-13T15:37:49;18.63;;;6.53;;
22660;SDS011;11497;52.222;21.246;2023-03-13T15:40:17;19.52;;;6.60;;
22660;SDS011;11497;52.222;21.246;2023-03-13T15:42:45;16.27;;;6.32;;
22660;SDS011;11497;52.222;21.246;2023-03-13T15:45:13;27.48;;;7.68;;
22660;SDS011;11497;52.222;21.246;2023-03-13T15:47:43;19.85;;;7.57;;
22660;SDS011;11497;52.222;21.246;2023-03-13T15:50:11;22.35;;;7.18;;
22660;SDS011;11497;52.222;21.246;2023-03-13T15:52:43;14.88;;;6.35;;
22660;SDS011;11497;52.222;21.246;2023-03-13T15:55:11;18.35;;;5.95;;
22660;SDS011;11497;52.222;21.246;2023-03-13T15:57:46;16.45;;;6.75;;
22660;SDS011;11497;52.222;21.246;2023-03-13T16:00:20;13.48;;;5.60;;
22660;SDS011;11497;52.222;21.246;2023-03-13T16:02:51;15.48;;;6.13;;
22660;SDS011;11497;52.222;21.246;2023-03-13T16:05:19;19.95;;;6.20;;
22660;SDS011;11497;52.222;21.246;2023-03-13T16:07:46;16.92;;;5.50;;
22660;SDS011;11497;52.222;21.246;2023-03-13T16:10:16;18.75;;;5.97;;
22660;SDS011;11497;52.222;21.246;2023-03-13T16:12:52;18.75;;;6.63;;
22660;SDS011;11497;52.222;21.246;2023-03-13T16:15:20;17.20;;;5.60;;
22660;SDS011;11497;52.222;21.246;2023-03-13T16:17:48;18.75;;;6.28;;
22660;SDS011;11497;52.222;21.246;2023-03-13T16:20:17;17.30;;;6.20;;
22660;SDS011;11497;52.222;21.246;2023-03-13T16:22:47;13.43;;;5.65;;
22660;SDS011;11497;52.222;21.246;2023-03-13T16:25:18;13.38;;;5.95;;
22660;SDS011;11497;52.222;21.246;2023-03-13T16:27:47;12.48;;;5.88;;
22660;SDS011;11497;52.222;21.246;2023-03-13T16:30:16;18.85;;;6.18;;
22660;SDS011;11497;52.222;21.246;2023-03-13T16:32:48;17.40;;;6.20;;
22660;SDS011;11497;52.222;21.246;2023-03-13T16:35:16;17.15;;;6.63;;
22660;SDS011;11497;52.222;21.246;2023-03-13T16:37:44;13.60;;;5.90;;
22660;SDS011;11497;52.222;21.246;2023-03-13T16:40:13;17.83;;;5.55;;
22660;SDS011;11497;52.222;21.246;2023-03-13T16:42:47;17.52;;;5.63;;